createdAt,value
2019-05-21T00:02:18.614Z,14.20
2019-05-21T00:04:49.245Z,14.20
2019-05-21T00:07:18.432Z,14.20
2019-05-21T00:09:49.292Z,14.20
2019-05-21T00:12:22.565Z,14.20
2019-05-21T00:14:52.759Z,14.20
2019-05-21T00:17:42.824Z,14.20
2019-05-21T00:20:16.747Z,14.10
2019-05-21T00:22:46.939Z,14.10
2019-05-21T00:25:17.430Z,14.10
2019-05-21T00:27:51.234Z,14.10
2019-05-21T00:30:57.173Z,14.10
2019-05-21T00:34:03.049Z,14.10
2019-05-21T00:37:14.261Z,14.10
2019-05-21T00:40:20.393Z,14.10
2019-05-21T00:42:50.839Z,14.10
2019-05-21T00:45:21.031Z,14.10
2019-05-21T00:47:56.799Z,14.10
2019-05-21T00:50:27.070Z,14.10
2019-05-21T00:52:56.784Z,14.10
2019-05-21T00:55:30.154Z,14.10
2019-05-21T00:57:59.905Z,14.10
2019-05-21T01:00:29.112Z,14.10
2019-05-21T01:03:02.644Z,14.00
2019-05-21T01:05:32.353Z,14.00
2019-05-21T01:08:01.534Z,14.00
2019-05-21T01:10:35.584Z,14.00
2019-05-21T01:13:04.922Z,14.00
2019-05-21T01:15:38.507Z,14.00
2019-05-21T01:18:17.346Z,13.90
2019-05-21T01:20:47.954Z,13.90
2019-05-21T01:23:17.268Z,14.00
2019-05-21T01:25:47.200Z,13.90
2019-05-21T01:28:17.457Z,13.90
2019-05-21T01:30:47.789Z,13.90
2019-05-21T01:33:17.689Z,13.90
2019-05-21T01:35:47.406Z,13.90
2019-05-21T01:38:27.892Z,13.80
2019-05-21T01:40:58.869Z,13.80
2019-05-21T01:43:31.000Z,13.80
2019-05-21T01:46:06.873Z,13.80
2019-05-21T01:48:37.094Z,13.80
2019-05-21T01:51:07.916Z,13.80
2019-05-21T01:53:41.465Z,13.70
2019-05-21T01:56:11.568Z,13.70
2019-05-21T01:58:42.213Z,13.70
2019-05-21T02:01:34.943Z,13.70
2019-05-21T02:04:04.601Z,13.70
2019-05-21T02:06:34.713Z,13.60
2019-05-21T02:09:08.647Z,13.70
2019-05-21T02:11:37.985Z,13.60
2019-05-21T02:14:07.968Z,13.70
2019-05-21T02:16:40.796Z,13.70
2019-05-21T02:19:10.859Z,13.70
2019-05-21T02:21:40.341Z,13.70
2019-05-21T02:24:14.219Z,13.70
2019-05-21T02:26:44.166Z,13.60
2019-05-21T02:29:14.339Z,13.70
2019-05-21T02:31:43.865Z,13.70
2019-05-21T02:34:13.573Z,13.70
2019-05-21T02:36:45.879Z,13.70
2019-05-21T02:39:15.069Z,13.70
2019-05-21T02:41:46.324Z,13.70
2019-05-21T02:44:19.841Z,13.70
2019-05-21T02:46:49.917Z,13.70
2019-05-21T02:49:19.284Z,13.70
2019-05-21T02:51:50.065Z,13.80
2019-05-21T02:54:37.293Z,13.80
2019-05-21T02:56:51.223Z,13.70
2019-05-21T02:59:24.238Z,13.80
2019-05-21T03:01:59.874Z,13.80
2019-05-21T03:04:28.994Z,13.80
2019-05-21T03:07:19.457Z,13.80
2019-05-21T03:09:50.613Z,13.80
2019-05-21T03:12:21.814Z,13.90
2019-05-21T03:14:55.321Z,13.80
2019-05-21T03:17:29.334Z,13.80
2019-05-21T03:19:58.909Z,13.80
2019-05-21T03:22:32.801Z,13.90
2019-05-21T03:25:03.605Z,13.90
2019-05-21T03:27:35.833Z,13.80
2019-05-21T03:30:15.120Z,13.90
2019-05-21T03:32:45.754Z,13.80
2019-05-21T03:35:16.461Z,13.80
2019-05-21T03:37:46.160Z,13.80
2019-05-21T03:40:17.016Z,13.80
2019-05-21T03:42:47.024Z,13.80
2019-05-21T03:45:17.634Z,13.80
2019-05-21T03:47:48.002Z,13.80
2019-05-21T03:50:23.536Z,13.80
2019-05-21T03:52:56.967Z,13.80
2019-05-21T03:55:26.439Z,13.80
2019-05-21T03:57:59.417Z,13.80
2019-05-21T04:00:29.565Z,13.80
2019-05-21T04:02:59.548Z,13.80
2019-05-21T04:05:33.979Z,13.80
2019-05-21T04:08:03.852Z,13.80
2019-05-21T04:10:32.969Z,13.80
2019-05-21T04:13:12.075Z,13.70
2019-05-21T04:15:44.017Z,13.70
2019-05-21T04:18:23.849Z,13.70
2019-05-21T04:20:57.709Z,13.70
2019-05-21T04:23:28.861Z,13.70
2019-05-21T04:25:58.022Z,13.70
2019-05-21T04:28:27.138Z,13.70
2019-05-21T04:30:56.577Z,13.70
2019-05-21T04:33:25.603Z,13.70
2019-05-21T04:35:56.113Z,13.70
2019-05-21T04:38:25.545Z,13.70
2019-05-21T04:40:56.245Z,13.70
2019-05-21T04:43:25.463Z,13.70
2019-05-21T04:45:55.005Z,13.70
2019-05-21T04:48:31.355Z,13.70
2019-05-21T04:51:03.435Z,13.70
2019-05-21T04:53:32.749Z,13.70
2019-05-21T04:56:02.220Z,13.70
2019-05-21T04:58:32.217Z,13.70
2019-05-21T05:01:01.489Z,13.70
2019-05-21T05:03:36.787Z,13.70
2019-05-21T05:06:06.651Z,13.70
2019-05-21T05:08:35.636Z,13.70
2019-05-21T05:11:10.153Z,13.70
2019-05-21T05:13:39.387Z,13.70
2019-05-21T05:16:10.012Z,13.70
2019-05-21T05:18:39.080Z,13.70
2019-05-21T05:21:09.381Z,13.70
2019-05-21T05:23:47.292Z,13.60
2019-05-21T05:26:18.234Z,13.70
2019-05-21T05:28:47.693Z,13.70
2019-05-21T05:31:42.332Z,13.70
2019-05-21T05:34:12.771Z,13.70
2019-05-21T05:36:42.202Z,13.70
2019-05-21T05:39:19.435Z,13.70
2019-05-21T05:41:49.617Z,13.70
2019-05-21T05:44:19.217Z,13.70
2019-05-21T05:52:46.258Z,13.70
2019-05-21T05:55:16.060Z,13.70
2019-05-21T05:57:56.983Z,13.60
2019-05-21T06:00:28.709Z,13.60
2019-05-21T06:02:58.649Z,13.60
2019-05-21T06:05:54.418Z,13.60
2019-05-21T06:08:25.073Z,13.60
2019-05-21T06:10:54.404Z,13.60
2019-05-21T06:13:31.324Z,13.60
2019-05-21T06:16:03.374Z,13.60
2019-05-21T06:18:50.772Z,13.60
2019-05-21T06:21:29.902Z,13.60
2019-05-21T06:24:00.064Z,13.50
2019-05-21T06:26:29.170Z,13.50
2019-05-21T06:29:03.503Z,13.50
2019-05-21T06:31:34.353Z,13.50
2019-05-21T06:34:04.366Z,13.50
2019-05-21T06:36:59.758Z,13.60
2019-05-21T06:39:30.435Z,13.60
2019-05-21T06:42:01.007Z,13.60
2019-05-21T06:44:30.033Z,13.60
2019-05-21T06:46:59.529Z,13.50
2019-05-21T06:49:28.585Z,13.50
2019-05-21T06:51:58.599Z,13.50
2019-05-21T06:54:27.718Z,13.50
2019-05-21T06:56:56.811Z,13.40
2019-05-21T06:59:32.459Z,13.40
2019-05-21T07:02:05.530Z,13.50
2019-05-21T07:04:35.788Z,13.40
2019-05-21T07:07:08.986Z,13.40
2019-05-21T07:09:39.560Z,13.40
2019-05-21T07:12:09.622Z,13.40
2019-05-21T07:14:49.761Z,13.40
2019-05-21T07:17:19.223Z,13.40
2019-05-21T07:19:48.238Z,13.40
2019-05-21T07:22:30.921Z,13.40
2019-05-21T07:25:00.508Z,13.40
2019-05-21T07:27:29.902Z,13.40
2019-05-21T07:29:58.994Z,13.40
2019-05-21T07:32:28.305Z,13.40
2019-05-21T07:34:57.647Z,13.40
2019-05-21T07:37:26.654Z,13.40
2019-05-21T07:39:55.649Z,13.40
2019-05-21T07:45:37.577Z,13.40
2019-05-21T07:48:07.071Z,13.40
2019-05-21T07:50:38.109Z,13.30
2019-05-21T07:53:08.143Z,13.30
2019-05-21T07:55:37.488Z,13.30
2019-05-21T07:58:11.673Z,13.30
2019-05-21T08:00:41.960Z,13.30
2019-05-21T08:03:12.350Z,13.30
2019-05-21T08:05:50.562Z,13.30
2019-05-21T08:08:19.802Z,13.30
2019-05-21T08:10:49.662Z,13.30
2019-05-21T08:13:24.813Z,13.30
2019-05-21T08:15:54.879Z,13.30
2019-05-21T08:18:26.435Z,13.20
2019-05-21T08:21:02.752Z,13.30
2019-05-21T08:23:32.572Z,13.30
2019-05-21T08:26:01.683Z,13.20
2019-05-21T08:28:37.857Z,13.20
2019-05-21T08:31:07.947Z,13.20
2019-05-21T08:34:00.312Z,13.20
2019-05-21T08:36:38.572Z,13.20
2019-05-21T08:39:08.927Z,13.20
2019-05-21T08:41:38.974Z,13.20
2019-05-21T08:44:33.521Z,13.20
2019-05-21T08:47:03.832Z,13.30
2019-05-21T08:49:33.490Z,13.30
2019-05-21T08:52:02.820Z,13.30
2019-05-21T08:54:49.572Z,13.30
2019-05-21T08:57:18.884Z,13.30
2019-05-21T08:59:54.695Z,13.30
2019-05-21T09:02:26.426Z,13.30
2019-05-21T09:04:55.999Z,13.30
2019-05-21T09:07:53.191Z,13.30
2019-05-21T09:10:21.027Z,13.40
2019-05-21T09:12:50.173Z,13.40
2019-05-21T09:15:21.112Z,13.40
2019-05-21T09:17:50.853Z,13.50
2019-05-21T09:20:22.037Z,13.50
2019-05-21T09:22:51.116Z,13.50
2019-05-21T09:25:20.313Z,13.50
2019-05-21T09:27:50.717Z,13.50
2019-05-21T09:30:30.517Z,13.60
2019-05-21T09:32:58.647Z,13.60
2019-05-21T09:35:30.346Z,13.50
2019-05-21T09:38:10.592Z,13.60
2019-05-21T09:40:40.478Z,13.60
2019-05-21T09:43:11.850Z,13.60
2019-05-21T09:45:49.540Z,13.70
2019-05-21T09:48:19.534Z,13.80
2019-05-21T09:50:54.141Z,13.70
2019-05-21T09:53:25.132Z,13.80
2019-05-21T09:55:54.115Z,13.90
2019-05-21T09:58:28.751Z,13.90
2019-05-21T10:03:53.905Z,14.00
2019-05-21T10:06:24.585Z,14.00
2019-05-21T10:08:53.771Z,13.90
2019-05-21T10:11:24.752Z,13.90
2019-05-21T10:14:01.636Z,13.90
2019-05-21T10:17:01.113Z,13.90
2019-05-21T10:19:53.191Z,13.90
2019-05-21T10:22:22.778Z,13.90
2019-05-21T10:25:17.064Z,13.80
2019-05-21T10:27:46.408Z,13.90
2019-05-21T10:30:15.907Z,13.90
2019-05-21T10:32:54.587Z,14.00
2019-05-21T10:35:24.581Z,14.00
2019-05-21T10:37:55.635Z,14.00
2019-05-21T10:40:24.989Z,14.10
2019-05-21T10:42:54.053Z,14.00
2019-05-21T10:45:23.981Z,13.90
2019-05-21T10:47:58.597Z,13.90
2019-05-21T10:50:27.908Z,13.90
2019-05-21T10:52:58.243Z,13.80
2019-05-21T10:55:27.301Z,13.80
2019-05-21T10:57:57.340Z,13.80
2019-05-21T11:00:27.912Z,13.80
2019-05-21T11:05:51.481Z,13.90
2019-05-21T11:08:24.088Z,14.00
2019-05-21T11:10:51.711Z,14.00
2019-05-21T11:13:21.220Z,14.00
2019-05-21T11:15:50.175Z,13.90
2019-05-21T11:18:19.484Z,14.00
2019-05-21T11:20:49.025Z,14.00
2019-05-21T11:23:24.913Z,14.00
2019-05-21T11:25:54.889Z,14.10
2019-05-21T11:28:23.827Z,14.10
2019-05-21T11:31:00.082Z,14.30
2019-05-21T11:33:30.045Z,14.40
2019-05-21T11:36:00.678Z,14.60
2019-05-21T11:38:39.886Z,14.80
2019-05-21T11:41:06.961Z,15.20
2019-05-21T11:43:36.978Z,15.30
2019-05-21T11:48:57.641Z,15.40
2019-05-21T11:51:26.982Z,15.40
2019-05-21T11:54:00.542Z,15.40
2019-05-21T11:56:30.792Z,15.50
2019-05-21T11:59:01.539Z,15.70
2019-05-21T12:01:43.564Z,16.10
2019-05-21T12:04:13.496Z,16.40
2019-05-21T12:06:42.136Z,16.60
2019-05-21T12:09:11.116Z,16.60
2019-05-21T12:11:39.659Z,16.70
2019-05-21T12:14:08.369Z,17.00
2019-05-21T12:16:37.012Z,16.90
2019-05-21T12:19:08.231Z,16.80
2019-05-21T12:21:36.004Z,16.90
2019-05-21T12:24:04.680Z,17.20
2019-05-21T12:26:33.214Z,17.30
2019-05-21T12:29:01.801Z,17.50
2019-05-21T12:31:30.606Z,17.30
2019-05-21T12:33:59.190Z,17.40
2019-05-21T12:36:27.809Z,17.50
2019-05-21T12:39:11.596Z,17.40
2019-05-21T12:41:27.039Z,17.30
2019-05-21T12:43:55.871Z,17.00
2019-05-21T12:46:24.507Z,16.90
2019-05-21T12:48:53.071Z,16.60
2019-05-21T12:51:21.627Z,16.30
2019-05-21T12:53:50.511Z,16.10
2019-05-21T12:56:19.126Z,16.10
2019-05-21T12:58:47.773Z,16.30
2019-05-21T13:01:16.348Z,16.60
2019-05-21T13:03:45.157Z,16.90
2019-05-21T13:06:13.864Z,17.20
2019-05-21T13:08:42.427Z,17.30
2019-05-21T13:11:10.995Z,17.20
2019-05-21T13:13:39.588Z,17.00
2019-05-21T13:16:08.271Z,16.70
2019-05-21T13:18:36.857Z,16.50
2019-05-21T13:21:08.424Z,16.00
2019-05-21T13:23:35.835Z,15.80
2019-05-21T13:26:08.280Z,15.60
2019-05-21T13:28:35.138Z,15.50
2019-05-21T13:31:03.847Z,15.30
2019-05-21T13:33:32.395Z,15.10
2019-05-21T13:36:01.331Z,15.20
2019-05-21T13:38:29.876Z,15.20
2019-05-21T13:40:59.272Z,15.20
2019-05-21T13:43:27.995Z,15.10
2019-05-21T13:45:56.610Z,15.00
2019-05-21T13:48:25.576Z,15.00
2019-05-21T13:50:54.130Z,15.00
2019-05-21T13:53:22.661Z,15.10
2019-05-21T13:55:51.637Z,15.60
2019-05-21T13:58:20.164Z,16.10
2019-05-21T14:00:50.599Z,16.60
2019-05-21T14:03:19.339Z,16.70
2019-05-21T14:05:48.323Z,16.60
2019-05-21T14:08:16.860Z,16.50
2019-05-21T14:10:45.874Z,16.50
2019-05-21T14:13:14.597Z,16.40
2019-05-21T14:15:43.474Z,16.20
2019-05-21T14:18:12.114Z,16.00
2019-05-21T14:20:40.576Z,15.70
2019-05-21T14:23:09.321Z,15.50
2019-05-21T14:25:38.032Z,15.50
2019-05-21T14:28:06.647Z,15.20
2019-05-21T14:30:36.406Z,15.10
2019-05-21T14:33:05.075Z,15.00
2019-05-21T14:35:33.699Z,14.90
2019-05-21T14:38:02.263Z,14.80
2019-05-21T14:40:32.841Z,14.90
2019-05-21T14:43:01.815Z,15.10
2019-05-21T14:45:33.940Z,15.10
2019-05-21T14:48:01.163Z,15.30
2019-05-21T14:50:29.833Z,15.50
2019-05-21T14:52:58.359Z,15.50
2019-05-21T14:55:27.005Z,15.60
2019-05-21T14:57:58.723Z,15.50
2019-05-21T15:00:32.009Z,15.30
2019-05-21T15:03:00.646Z,15.20
2019-05-21T15:05:29.283Z,15.00
2019-05-21T15:07:59.137Z,15.10
2019-05-21T15:10:27.897Z,15.00
2019-05-21T15:12:56.848Z,15.00
2019-05-21T15:15:25.607Z,14.90
2019-05-21T15:17:54.254Z,14.90
2019-05-21T15:20:42.516Z,14.70
2019-05-21T15:23:11.083Z,14.70
2019-05-21T15:25:39.629Z,14.80
2019-05-21T15:28:08.521Z,15.10
2019-05-21T15:30:37.200Z,15.30
2019-05-21T15:33:05.828Z,15.40
2019-05-21T15:35:34.544Z,15.50
2019-05-21T15:38:22.721Z,15.30
2019-05-21T15:41:08.591Z,15.20
2019-05-21T15:43:21.612Z,15.20
2019-05-21T15:45:50.171Z,15.40
2019-05-21T15:48:18.783Z,15.50
2019-05-21T15:50:47.332Z,15.60
2019-05-21T15:53:15.970Z,15.60
2019-05-21T15:55:44.518Z,15.70
2019-05-21T15:58:13.178Z,15.70
2019-05-21T16:00:42.221Z,15.60
2019-05-21T16:03:11.217Z,15.60
2019-05-21T16:05:39.825Z,15.50
2019-05-21T16:08:08.353Z,15.30
2019-05-21T16:10:36.882Z,15.10
2019-05-21T16:13:05.568Z,15.10
2019-05-21T16:15:34.411Z,15.10
2019-05-21T16:18:03.048Z,15.00
2019-05-21T16:20:31.582Z,15.00
2019-05-21T16:23:00.135Z,15.00
2019-05-21T16:25:28.973Z,14.90
2019-05-21T16:27:57.855Z,14.70
2019-05-21T16:30:26.471Z,14.60
2019-05-21T16:32:55.172Z,14.60
2019-05-21T16:35:24.117Z,14.70
2019-05-21T16:37:52.735Z,14.80
2019-05-21T16:40:21.795Z,14.80
2019-05-21T16:42:50.435Z,14.90
2019-05-21T16:45:19.250Z,15.00
2019-05-21T16:47:47.954Z,14.90
2019-05-21T16:50:16.744Z,14.90
2019-05-21T16:52:45.870Z,14.80
2019-05-21T16:55:14.559Z,14.80
2019-05-21T16:57:43.221Z,14.70
2019-05-21T17:00:15.579Z,14.70
2019-05-21T17:02:44.546Z,14.60
2019-05-21T17:05:14.615Z,14.70
2019-05-21T17:07:43.301Z,14.70
2019-05-21T17:10:14.370Z,14.70
2019-05-21T17:12:43.055Z,14.70
2019-05-21T17:15:13.842Z,14.70
2019-05-21T17:17:42.475Z,14.60
2019-05-21T17:20:11.820Z,14.60
2019-05-21T17:22:40.386Z,14.60
2019-05-21T17:25:09.908Z,14.60
2019-05-21T17:27:38.582Z,14.60
2019-05-21T17:30:08.911Z,14.60
2019-05-21T17:32:37.922Z,14.60
2019-05-21T17:35:07.736Z,14.60
2019-05-21T17:37:57.131Z,14.60
2019-05-21T17:40:25.811Z,14.50
2019-05-21T17:42:54.319Z,14.50
2019-05-21T17:45:23.311Z,14.50
2019-05-21T17:47:52.061Z,14.50
2019-05-21T17:50:21.027Z,14.50
2019-05-21T17:52:49.575Z,14.50
2019-05-21T17:55:18.262Z,14.50
2019-05-21T17:57:46.867Z,14.40
2019-05-21T18:00:19.319Z,14.40
2019-05-21T18:02:47.982Z,14.40
2019-05-21T18:05:17.469Z,14.40
2019-05-21T18:07:46.108Z,14.40
2019-05-21T18:10:16.753Z,14.40
2019-05-21T18:12:45.583Z,14.40
2019-05-21T18:15:35.155Z,14.30
2019-05-21T18:18:05.085Z,14.30
2019-05-21T18:20:35.078Z,14.30
2019-05-21T18:23:03.637Z,14.30
2019-05-21T18:25:32.379Z,14.30
2019-05-21T18:28:00.926Z,14.30
2019-05-21T18:30:29.914Z,14.30
2019-05-21T18:32:59.087Z,14.20
2019-05-21T18:35:27.709Z,14.20
2019-05-21T18:37:56.360Z,14.20
2019-05-21T18:40:24.932Z,14.20
2019-05-21T18:42:53.473Z,14.20
2019-05-21T18:45:22.119Z,14.20
2019-05-21T18:47:51.508Z,14.20
2019-05-21T18:50:35.488Z,14.20
2019-05-21T18:52:54.022Z,14.10
2019-05-21T18:55:23.474Z,14.10
2019-05-21T18:57:55.170Z,14.10
2019-05-21T19:00:24.725Z,14.10
2019-05-21T19:02:53.267Z,14.00
2019-05-21T19:05:21.825Z,14.00
2019-05-21T19:07:50.374Z,14.00
2019-05-21T19:10:19.083Z,14.00
2019-05-21T19:12:47.705Z,13.90
2019-05-21T19:15:16.644Z,13.90
2019-05-21T19:17:45.867Z,13.90
2019-05-21T19:20:15.065Z,13.90
2019-05-21T19:22:43.955Z,13.90
2019-05-21T19:25:12.666Z,13.90
2019-05-21T19:27:41.351Z,13.90
2019-05-21T19:30:10.732Z,13.90
2019-05-21T19:32:39.432Z,13.80
2019-05-21T19:35:08.595Z,13.90
2019-05-21T19:37:37.329Z,13.80
2019-05-21T19:40:07.415Z,13.80
2019-05-21T19:42:36.421Z,13.90
2019-05-21T19:45:07.160Z,13.90
2019-05-21T19:47:37.430Z,13.80
2019-05-21T19:50:12.145Z,13.90
2019-05-21T19:52:41.933Z,13.80
2019-05-21T19:55:13.318Z,13.80
2019-05-21T19:57:54.943Z,13.80
2019-05-21T20:00:27.452Z,13.80
2019-05-21T20:02:57.306Z,13.80
2019-05-21T20:05:32.601Z,13.80
2019-05-21T20:08:03.259Z,13.80
2019-05-21T20:10:34.181Z,13.80
2019-05-21T20:13:08.081Z,13.70
2019-05-21T20:15:39.717Z,13.70
2019-05-21T20:18:10.194Z,13.80
2019-05-21T20:20:46.157Z,13.70
2019-05-21T20:23:18.248Z,13.70
2019-05-21T20:25:56.391Z,13.60
2019-05-21T20:28:45.465Z,13.60
2019-05-21T20:31:15.535Z,13.60
2019-05-21T20:33:47.197Z,13.60
2019-05-21T20:36:21.849Z,13.60
2019-05-21T20:38:52.125Z,13.60
2019-05-21T20:41:23.254Z,13.60
2019-05-21T20:43:59.977Z,13.60
2019-05-21T20:46:30.107Z,13.50
2019-05-21T20:49:01.180Z,13.50
2019-05-21T20:51:36.536Z,13.50
2019-05-21T20:54:09.598Z,13.50
2019-05-21T20:56:39.461Z,13.50
2019-05-21T20:59:15.923Z,13.50
2019-05-21T21:01:45.128Z,13.50
2019-05-21T21:04:15.139Z,13.50
2019-05-21T21:07:08.601Z,13.50
2019-05-21T21:09:58.072Z,13.50
2019-05-21T21:12:28.086Z,13.60
2019-05-21T21:15:24.688Z,13.60
2019-05-21T21:17:55.385Z,13.60
2019-05-21T21:20:24.603Z,13.50
2019-05-21T21:23:07.004Z,13.50
2019-05-21T21:25:38.195Z,13.40
2019-05-21T21:28:08.083Z,13.40
2019-05-21T21:30:47.677Z,13.40
2019-05-21T21:33:18.273Z,13.40
2019-05-21T21:35:47.714Z,13.40
2019-05-21T21:38:39.115Z,13.30
2019-05-21T21:41:14.513Z,13.30
2019-05-21T21:43:44.644Z,13.30
2019-05-21T21:46:14.350Z,13.30
2019-05-21T21:48:50.968Z,13.20
2019-05-21T21:51:21.350Z,13.30
2019-05-21T21:53:50.630Z,13.30
2019-05-21T21:56:22.822Z,13.20
2019-05-21T21:58:52.702Z,13.20
2019-05-21T22:01:29.455Z,13.20
2019-05-21T22:04:06.298Z,13.20
2019-05-21T22:06:38.571Z,13.20
2019-05-21T22:09:11.982Z,13.20
2019-05-21T22:12:05.624Z,13.20
2019-05-21T22:14:56.647Z,13.20
2019-05-21T22:17:26.858Z,13.10
2019-05-21T22:20:17.702Z,13.10
2019-05-21T22:22:48.878Z,13.00
2019-05-21T22:25:19.004Z,13.00
2019-05-21T22:27:51.195Z,13.00
2019-05-21T22:30:22.204Z,13.00
2019-05-21T22:32:52.312Z,13.00
2019-05-21T22:35:22.317Z,13.00
2019-05-21T22:38:17.055Z,13.00
2019-05-21T22:40:46.661Z,13.00
2019-05-21T22:43:16.273Z,13.00
2019-05-21T22:45:46.672Z,13.00
2019-05-21T22:48:17.081Z,13.00
2019-05-21T22:50:50.983Z,12.90
2019-05-21T22:53:20.511Z,12.90
2019-05-21T22:55:49.638Z,12.90
2019-05-21T22:58:24.310Z,12.90
2019-05-21T23:00:54.487Z,12.90
2019-05-21T23:03:24.823Z,12.90
2019-05-21T23:06:01.041Z,12.80
2019-05-21T23:08:32.041Z,12.80
2019-05-21T23:11:02.244Z,12.80
2019-05-21T23:13:38.659Z,12.80
2019-05-21T23:16:10.226Z,12.70
2019-05-21T23:18:40.670Z,12.70
2019-05-21T23:21:20.100Z,12.70
2019-05-21T23:23:50.929Z,12.70
2019-05-21T23:26:20.952Z,12.70
2019-05-21T23:28:57.104Z,12.70
2019-05-21T23:31:27.482Z,12.70
2019-05-21T23:34:18.984Z,12.70
2019-05-21T23:36:54.647Z,12.70
2019-05-21T23:39:26.061Z,12.70
2019-05-21T23:41:55.887Z,12.70
2019-05-21T23:44:32.522Z,12.70
2019-05-21T23:47:02.769Z,12.70
2019-05-21T23:49:31.953Z,12.60
2019-05-21T23:52:07.584Z,12.60
2019-05-21T23:54:39.265Z,12.60
2019-05-21T23:57:10.053Z,12.50
2019-05-21T23:59:43.295Z,12.50
